• Join FlightAware (Why Join?)
  • Login
  • US Flag 
01:39AM EDT


 

Airport Tracker/Info


-or-


 

Live Flight TrackerFlight Track Log ✈ CHH7104 ✈ 10-Nov-2013 ✈ ZYMD / MDG - ZBAA / PEK

Flight Track Log - Related Links

Times and Time Zones

All times are in EST time to prevent confusion due to time zone crossing. See the CHH7104 flight status page for this flight to view local times or setup timezone preferences in your user account.

Time Position Orientation Groundspeed Altitude Reporting Facility
EST Latitude Longitude Course Direction KTS MPH feet Rate Location/Type
10:14PM 44.4897 129.4392 250° West  Level Estimated
10:15PM 44.4551 129.3095 250° West  Level Estimated
10:16PM 44.4204 129.1800 249° West  Level Estimated
10:17PM 44.3855 129.0506 249° West  Level Estimated
10:18PM 44.3505 128.9214 249° West  Level Estimated
10:19PM 44.3153 128.7924 249° West  Level Estimated
10:20PM 44.2800 128.6635 249° West  Level Estimated
10:21PM 44.2446 128.5348 249° West  Level Estimated
10:22PM 44.2090 128.4062 249° West  Level Estimated
10:23PM 44.1733 128.2778 249° West  Level Estimated
10:24PM 44.1374 128.1495 249° West  Level Estimated
10:25PM 44.1014 128.0214 249° West  Level Estimated
10:26PM 44.0652 127.8934 249° West  Level Estimated
10:27PM 44.0289 127.7656 248° West  Level Estimated
10:28PM 43.9925 127.6380 248° West  Level Estimated
10:29PM 43.9559 127.5105 248° West  Level Estimated
10:30PM 43.9192 127.3832 248° West  Level Estimated
10:31PM 43.8823 127.2560 248° West  Level Estimated
10:32PM 43.8453 127.1290 248° West  Level Estimated
10:33PM 43.8081 127.0021 248° West  Level Estimated
10:34PM 43.7708 126.8754 248° West  Level Estimated
10:35PM 43.7334 126.7489 248° West  Level Estimated
10:36PM 43.6958 126.6225 248° West  Level Estimated
10:37PM 43.6581 126.4963 248° West  Level Estimated
10:38PM 43.6203 126.3702 248° West  Level Estimated
10:39PM 43.5823 126.2443 247° West  Level Estimated
10:40PM 43.5442 126.1186 247° West  Level Estimated
10:41PM 43.5059 125.9930 247° West  Level Estimated
10:42PM 43.4675 125.8676 247° West  Level Estimated
10:43PM 43.4290 125.7423 247° West  Level Estimated
10:44PM 43.3903 125.6172 247° West  Level Estimated
10:45PM 43.3515 125.4922 247° West  Level Estimated
10:46PM 43.3125 125.3674 247° West  Level Estimated
10:47PM 43.2734 125.2428 247° West  Level Estimated
10:48PM 43.2342 125.1183 247° West  Level Estimated
10:49PM 43.1949 124.9940 247° West  Level Estimated
10:50PM 43.1554 124.8699 246° West  Level Estimated
10:51PM 43.1158 124.7459 246° West  Level Estimated
10:52PM 43.0760 124.6221 246° West  Level Estimated
10:53PM 43.0361 124.4984 246° West  Level Estimated
10:54PM 42.9961 124.3749 246° West  Level Estimated
10:55PM 42.9560 124.2516 246° West  Level Estimated
10:56PM 42.9157 124.1284 246° West  Level Estimated
10:57PM 42.8753 124.0054 246° West  Level Estimated
10:58PM 42.8347 123.8825 246° West  Level Estimated
10:59PM 42.7940 123.7598 246° West  Level Estimated
11:00PM 42.7532 123.6373 246° West  Level Estimated
11:01PM 42.7123 123.5149 246° West  Level Estimated
11:02PM 42.6712 123.3927 245° Southwest  Level Estimated
11:03PM 42.6300 123.2707 245° Southwest  Level Estimated
11:04PM 42.5887 123.1488 245° Southwest  Level Estimated
11:05PM 42.5472 123.0270 245° Southwest  Level Estimated
11:06PM 42.5056 122.9055 245° Southwest  Level Estimated
11:07PM 42.4639 122.7841 245° Southwest  Level Estimated
11:08PM 42.4221 122.6628 245° Southwest  Level Estimated
11:09PM 42.3801 122.5417 245° Southwest  Level Estimated
11:10PM 42.3380 122.4208 245° Southwest  Level Estimated
11:11PM 42.2958 122.3001 245° Southwest  Level Estimated
11:12PM 42.2534 122.1795 245° Southwest  Level Estimated
11:13PM 42.2109 122.0590 245° Southwest  Level Estimated
11:14PM 42.1683 121.9388 244° Southwest  Level Estimated
11:15PM 42.1256 121.8187 244° Southwest  Level Estimated
11:16PM 42.0828 121.6987 244° Southwest  Level Estimated
11:17PM 42.0398 121.5789 244° Southwest  Level Estimated
11:18PM 41.9967 121.4593 244° Southwest  Level Estimated
11:19PM 41.9534 121.3399 244° Southwest  Level Estimated
11:20PM 41.9101 121.2206 244° Southwest  Level Estimated
11:21PM 41.8666 121.1014 244° Southwest  Level Estimated
11:22PM 41.8230 120.9825 244° Southwest  Level Estimated
11:23PM 41.7793 120.8636 244° Southwest  Level Estimated
11:24PM 41.7355 120.7450 244° Southwest  Level Estimated
11:25PM 41.6915 120.6265 244° Southwest  Level Estimated
11:26PM 41.6474 120.5082 244° Southwest  Level Estimated
11:27PM 41.6032 120.3900 243° Southwest  Level Estimated
11:28PM 41.5589 120.2720 243° Southwest  Level Estimated
11:29PM 41.5144 120.1542 243° Southwest  Level Estimated
11:30PM 41.4699 120.0365 243° Southwest  Level Estimated
11:31PM 41.4252 119.9190 243° Southwest  Level Estimated
11:32PM 41.3804 119.8016 243° Southwest  Level Estimated
11:33PM 41.3354 119.6844 243° Southwest  Level Estimated
11:33PM 41.2110 118.4410 243° Southwest 372 428 28,200  Level FlightAware
11:34PM 41.2904 119.5674 243° Southwest  Level Estimated
11:34PM 41.1930 118.3240 258° West 372 428 28,200  Level FlightAware
11:34PM 41.1780 118.2320 258° West 372 428 28,200  Level FlightAware
11:35PM 41.1670 118.1620 258° West 372 428 28,200  Level FlightAware
11:36PM 41.1520 118.0710 258° West 372 428 28,200  Level FlightAware
11:36PM 41.1410 118.0020 258° West 372 428 28,200 -1,620 Level FlightAware
11:39PM 40.9930 117.8001 226° Southwest  Level Estimated
11:40PM 40.9240 117.7064 226° Southwest  Level Estimated
11:41PM 40.8549 117.6130 226° Southwest  Level Estimated
11:42PM 40.7858 117.5198 226° Southwest  Level Estimated
11:43PM 40.7166 117.4268 226° Southwest  Level Estimated
11:44PM 40.6473 117.3339 225° Southwest  Level Estimated
11:45PM 40.5780 117.2413 225° Southwest  Level Estimated
11:46PM 40.5085 117.1488 225° Southwest  Level Estimated
11:46PM 40.7500 116.9880 225° Southwest 302 348 11,800  Level FlightAware
11:46PM 40.7300 116.9760 204° Southwest 306 352 11,800  Level FlightAware
11:47PM 40.6600 116.9370 203° Southwest 306 352 11,800  Level FlightAware
11:48PM 40.6070 116.9070 203° Southwest 306 352 11,800 -780 Level FlightAware
11:51PM 40.4087 116.7850 205° Southwest  Level Estimated
11:51PM 40.4170 116.7980 205° Southwest 264 304 9,400  Level FlightAware
11:51PM 40.3760 116.7740 204° Southwest 259 298 9,400 -600 Level FlightAware
11:52PM 40.3480 116.7590 202° Southwest 266 306 8,800 -1,200 Descending FlightAware
11:52PM 40.3250 116.7520 193° South 269 310 8,500 -540 Descending FlightAware
11:52PM 40.3030 116.7500 184° South 272 313 8,500  Level FlightAware
11:53PM 40.2710 116.7520 177° South 270 311 8,500  Level FlightAware
11:53PM 40.2290 116.7540 178° South 272 313 8,500 60 Level FlightAware
11:54PM 40.1990 116.7550 179° South 271 312 8,600  Climbing FlightAware
11:54PM 40.1680 116.7570 177° South 250 288 8,500 -180 Descending FlightAware
11:54PM 40.1460 116.7580 178° South 235 270 8,500  Level FlightAware
11:55PM 40.1180 116.7600 177° South 225 259 8,500  Level FlightAware
11:55PM 40.0860 116.7620 177° South 217 250 8,500 -360 Level FlightAware
11:56PM 40.0640 116.7630 178° South 221 254 8,200 -1,200 Descending FlightAware
11:56PM 40.0390 116.7640 178° South 233 268 7,600 -1,260 Descending FlightAware
11:57PM 40.0120 116.7650 178° South 231 266 7,200 -1,260 Descending FlightAware
11:57PM 39.9920 116.7660 178° South 240 276 6,700 -900 Descending FlightAware
11:57PM 39.9600 116.7680 177° South 235 270 6,500 -300 Descending FlightAware
11:58PM 39.9440 116.7680 180° South 236 272 6,500 -720 Level FlightAware
11:58PM 39.9050 116.7710 177° South 228 262 5,900 -960 Descending FlightAware
11:59PM 39.8890 116.7710 180° South 223 257 5,700 -300 Descending FlightAware
11:59PM 39.8660 116.7720 178° South 223 257 5,700 -720 Level FlightAware
12:00AM 39.7830 116.7830 174° South 207 238 4,500 -900 Descending FlightAware
12:01AM 39.7740 116.7840 175° South 205 236 4,400 -660 Descending FlightAware
12:01AM 39.7320 116.7910 173° South 198 228 3,900 -480 Descending FlightAware
12:02AM 39.7120 116.7940 173° South 198 228 3,900 -360 Level FlightAware
12:03AM 39.8640 116.7750 355° North 206 237 3,500 -660 Descending FlightAware
12:03AM 39.8850 116.7720 354° North 160 184 3,100 -540 Descending FlightAware
12:04AM 39.7520 116.6940 204° Southwest 160 184 2,800 -300 Descending FlightAware
12:05AM 39.7870 116.6640 327° Northwest 159 183 2,600 -120 Descending FlightAware
12:05AM 39.8040 116.6570 342° North 168 193 2,700  Climbing FlightAware
12:06AM 39.8250 116.6540 354° North 170 196 2,600 -180 Descending FlightAware
12:06AM 39.8390 116.6520 354° North 167 192 2,600  Level FlightAware
12:06AM 39.8480 116.6510 355° North 165 190 2,600  Level FlightAware
12:06AM 39.8590 116.6490 352° North 163 188 2,600  Level FlightAware
12:07AM 39.8750 116.6460 352° North 163 188 2,600  Level FlightAware
12:07AM 39.8970 116.6430 354° North 150 173 2,600 -240 Level FlightAware
12:08AM 39.9250 116.6390 354° North 132 152 2,400 -480 Descending FlightAware
12:09AM 39.9470 116.6350 352° North 138 159 2,000 -660 Descending FlightAware
12:09AM 39.9580 116.6330 352° North 140 161 1,800 -840 Descending FlightAware
12:09AM 39.9660 116.6320 355° North 139 160 1,600 -360 Descending FlightAware
12:10AM 39.9810 116.6300 354° North 139 160 1,600 -780 Level FlightAware
12:10AM 39.9980 116.6270 352° North 139 160 1,000 -780 Descending FlightAware
12:10AM 40.0130 116.6250 354° North 139 160 1,000  Level FlightAware
12:13AM 40.0801 116.5846 335° Northwest  Level Estimated